Time;durP1;ratioP1;P1;durP2;ratioP2;P2;SDS_P1;SDS_P2;PMS_P1;PMS_P2;Temp;Humidity;BMP_temperature;BMP_pressure;BME280_temperature;BME280_humidity;BME280_pressure;Samples;Min_cycle;Max_cycle;Signal;HPM_P1;HPM_P2
2024/02/05 00:05:40;176586.00;0.59;305.61;0.00;0.00;0.62;;;;;10.00;1.00;;;;;;2265439;61;1947;-89
2024/02/05 00:08:07;59291.00;0.20;103.25;0.00;0.00;0.62;;;;;9.90;1.00;;;;;;2263814;61;1508;-88
2024/02/05 00:13:05;239342.00;0.80;413.62;0.00;0.00;0.62;;;;;10.20;1.00;;;;;;2270010;61;1302;-88
2024/02/05 00:18:01;99760.00;0.33;173.16;0.00;0.00;0.62;;;;;10.00;1.00;;;;;;2266233;61;1290;-89
2024/02/05 00:20:28;64518.00;0.22;112.29;0.00;0.00;0.62;;;;;10.00;1.00;;;;;;2264751;61;871;-90
2024/02/05 00:22:56;126662.00;0.42;219.57;0.00;0.00;0.62;;;;;10.20;1.00;;;;;;2264610;61;1693;-88
2024/02/05 00:25:23;65133.00;0.22;113.35;0.00;0.00;0.62;;;;;10.50;1.00;;;;;;2264671;61;1158;-88
2024/02/05 00:27:50;105380.00;0.35;182.86;0.00;0.00;0.62;;;;;10.20;1.00;;;;;;2264643;61;1932;-89
2024/02/05 00:30:18;126909.00;0.42;220.00;0.00;0.00;0.62;;;;;10.30;1.00;;;;;;2264657;61;878;-89
2024/02/05 00:32:45;116714.00;0.39;202.41;0.00;0.00;0.62;;;;;10.20;1.00;;;;;;2264565;61;1511;-89
2024/02/05 00:35:12;48523.00;0.16;84.63;0.00;0.00;0.62;;;;;10.00;1.00;;;;;;2264552;61;1122;-88
2024/02/05 00:37:39;114095.00;0.38;197.90;0.00;0.00;0.62;;;;;9.90;1.00;;;;;;2264658;61;1068;-88
2024/02/05 00:40:09;160523.00;0.54;277.94;0.00;0.00;0.62;;;;;9.80;1.00;;;;;;2264619;61;1764;-88
2024/02/05 00:42:36;26340.00;0.09;46.25;0.00;0.00;0.62;;;;;9.90;1.00;;;;;;2263817;61;1478;-89
2024/02/05 00:47:32;58976.00;0.20;102.71;0.00;0.00;0.62;;;;;10.10;1.00;;;;;;2262219;61;1880;-90
2024/02/05 00:49:59;121315.00;0.40;210.35;0.00;0.00;0.62;;;;;10.30;1.00;;;;;;2260577;61;816;-89
2024/02/05 00:52:27;184738.00;0.62;319.65;0.00;0.00;0.62;;;;;10.40;1.00;;;;;;2259659;61;1260;-87
2024/02/05 01:02:24;114294.00;0.38;198.24;0.00;0.00;0.62;;;;;9.50;1.00;;;;;;2269932;61;1405;-88
2024/02/05 01:07:19;217640.00;0.73;376.28;0.00;0.00;0.62;;;;;9.60;1.00;;;;;;2270453;61;1874;-88
2024/02/05 01:09:46;176030.00;0.59;304.65;0.00;0.00;0.62;;;;;9.70;1.00;;;;;;2268559;61;2302;-86
2024/02/05 01:12:13;82488.00;0.27;143.33;0.00;0.00;0.62;;;;;9.50;1.00;;;;;;2268485;61;1293;-89
2024/02/05 01:14:39;26430.00;0.09;46.40;0.00;0.00;0.62;;;;;9.40;1.00;;;;;;2268656;61;889;-90
2024/02/05 01:17:06;122709.00;0.41;212.76;0.00;0.00;0.62;;;;;9.40;1.00;;;;;;2268498;61;1606;-87
2024/02/05 01:19:35;95564.00;0.32;165.91;0.00;0.00;0.62;;;;;9.80;1.00;;;;;;2268590;61;1084;-87
2024/02/05 01:22:02;75979.00;0.25;132.09;0.00;0.00;0.62;;;;;9.90;1.00;;;;;;2268544;61;1317;-90
2024/02/05 01:24:30;387.00;0.00;1.29;0.00;0.00;0.62;;;;;10.20;1.00;;;;;;2268571;61;2084;-88
2024/02/05 01:26:57;53374.00;0.18;93.02;0.00;0.00;0.62;;;;;10.30;1.00;;;;;;2268429;61;1994;-86
2024/02/05 01:29:24;150409.00;0.50;260.51;0.00;0.00;0.62;;;;;10.30;1.00;;;;;;2268576;61;1084;-88
2024/02/05 01:31:51;0.00;0.00;0.62;0.00;0.00;0.62;;;;;10.20;1.00;;;;;;2268470;61;1701;-89
2024/02/05 01:34:18;122899.00;0.41;213.08;0.00;0.00;0.62;;;;;10.30;1.00;;;;;;2268560;61;890;-88
2024/02/05 01:36:46;31837.00;0.11;55.76;0.00;0.00;0.62;;;;;10.60;1.00;;;;;;2268614;61;1044;-90
2024/02/05 01:39:15;12769.00;0.04;22.75;0.00;0.00;0.62;;;;;10.50;1.00;;;;;;2268504;61;1699;-88
2024/02/05 01:41:42;13069.00;0.04;23.27;0.00;0.00;0.62;;;;;10.70;1.00;;;;;;2268521;61;1304;-89
2024/02/05 01:44:09;273833.00;0.91;472.93;23110.00;0.08;40.66;;;;;10.50;1.00;;;;;;2268516;61;1503;-89
2024/02/05 01:46:38;6564.00;0.02;12.00;0.00;0.00;0.62;;;;;10.40;1.00;;;;;;2268370;61;2004;-90
2024/02/05 01:49:08;12167.00;0.04;21.70;0.00;0.00;0.62;;;;;10.20;1.00;;;;;;2268567;61;753;-89
2024/02/05 01:51:40;140328.00;0.47;243.14;0.00;0.00;0.62;;;;;10.30;1.00;;;;;;2268541;61;850;-89
2024/02/05 01:54:14;77416.00;0.26;134.57;0.00;0.00;0.62;;;;;10.20;1.00;;;;;;2268557;61;931;-90
2024/02/05 01:56:41;312.00;0.00;1.16;0.00;0.00;0.62;;;;;10.10;1.00;;;;;;2268518;61;1122;-88
2024/02/05 01:59:09;22939.00;0.08;40.36;0.00;0.00;0.62;;;;;10.20;1.00;;;;;;2268438;61;1584;-88
2024/02/05 02:01:40;55248.00;0.18;96.26;0.00;0.00;0.62;;;;;10.30;1.00;;;;;;2268503;61;765;-90
2024/02/05 02:04:07;95353.00;0.32;165.55;0.00;0.00;0.62;;;;;10.30;1.00;;;;;;2268460;61;1385;-87
2024/02/05 02:16:40;154009.00;0.51;266.72;0.00;0.00;0.62;;;;;10.50;1.00;;;;;;2273436;61;1261;-89
2024/02/05 02:19:16;73941.00;0.25;128.57;0.00;0.00;0.62;;;;;10.60;1.00;;;;;;2288772;55;3797;-89
2024/02/05 02:21:44;195379.00;0.65;337.97;0.00;0.00;0.62;;;;;10.50;1.00;;;;;;2265151;61;1415;-87
2024/02/05 02:26:42;207312.00;0.69;358.51;0.00;0.00;0.62;;;;;10.60;1.00;;;;;;2269029;61;1980;-88
2024/02/05 02:29:08;139629.00;0.47;241.93;0.00;0.00;0.62;;;;;10.50;1.00;;;;;;2352850;40;3627;-89
2024/02/05 02:39:11;56763.00;0.19;98.88;0.00;0.00;0.62;;;;;10.90;1.00;;;;;;2265847;61;1198;-87
2024/02/05 02:41:43;7498.00;0.02;13.61;0.00;0.00;0.62;;;;;10.70;1.00;;;;;;2264321;61;1080;-87
2024/02/05 02:59:17;112580.00;0.38;195.28;0.00;0.00;0.62;;;;;11.20;1.00;;;;;;2338418;55;3642;-88
2024/02/05 03:01:44;364904.00;1.22;629.48;0.00;0.00;0.62;;;;;11.20;1.00;;;;;;2273826;61;1650;-88
2024/02/05 03:04:11;61476.00;0.20;107.03;0.00;0.00;0.62;;;;;11.10;1.00;;;;;;2286004;41;3660;-90
2024/02/05 03:21:34;487201.00;1.62;839.79;90376.00;0.30;156.96;;;;;11.00;1.00;;;;;;2269636;61;1425;-88
2024/02/05 03:26:31;392626.00;1.31;677.13;95371.00;0.32;165.58;;;;;11.10;1.00;;;;;;2266124;61;1904;-88
2024/02/05 03:36:29;455293.00;1.52;784.89;97160.00;0.32;168.67;;;;;11.40;1.00;;;;;;2282917;40;3518;-90
2024/02/05 03:38:57;788948.00;2.63;1361.86;174440.00;0.58;301.91;;;;;11.40;1.00;;;;;;2281489;55;3759;-89
2024/02/05 03:41:24;598032.00;1.99;1030.82;90951.00;0.30;157.95;;;;;11.30;1.00;;;;;;2274127;61;1235;-87
2024/02/05 03:46:20;691168.00;2.30;1191.93;102374.00;0.34;177.67;;;;;11.40;1.00;;;;;;2266000;61;1263;-89
2024/02/05 03:56:18;818986.00;2.73;1414.26;95503.00;0.32;165.81;;;;;10.70;1.00;;;;;;2283598;40;3472;-88
2024/02/05 04:06:11;1039830.00;3.47;1803.14;24159.00;0.08;42.47;;;;;11.20;1.00;;;;;;2266708;61;1325;-89
2024/02/05 04:08:38;442505.00;1.48;762.89;0.00;0.00;0.62;;;;;11.20;1.00;;;;;;2264042;61;1940;-89
2024/02/05 04:11:05;500209.00;1.67;862.18;88297.00;0.29;153.37;;;;;11.20;1.00;;;;;;2263967;61;1656;-89
2024/02/05 04:16:07;548785.00;1.83;945.86;15638.00;0.05;27.72;;;;;11.40;1.00;;;;;;2270852;61;1336;-89
2024/02/05 04:18:34;491998.00;1.64;848.05;50121.00;0.17;87.40;;;;;11.50;1.00;;;;;;2268691;61;1536;-90
2024/02/05 04:21:03;431302.00;1.44;743.62;0.00;0.00;0.62;;;;;11.30;1.00;;;;;;2268725;61;1583;-89
2024/02/05 04:23:30;366466.00;1.22;632.16;0.00;0.00;0.62;;;;;11.30;1.00;;;;;;2268719;61;1700;-88
2024/02/05 04:26:00;289637.00;0.97;500.11;0.00;0.00;0.62;;;;;10.90;1.00;;;;;;2267890;61;1419;-86
2024/02/05 04:28:31;333598.00;1.11;575.67;0.00;0.00;0.62;;;;;10.90;1.00;;;;;;2267775;61;1939;-89
2024/02/05 04:33:30;462299.00;1.54;796.94;0.00;0.00;0.62;;;;;11.20;1.00;;;;;;2282606;40;3591;-93
2024/02/05 04:43:31;171111.00;0.57;296.18;0.00;0.00;0.62;;;;;11.50;1.00;;;;;;2284664;55;3739;-89
2024/02/05 04:48:35;187709.00;0.63;324.76;0.00;0.00;0.62;;;;;11.90;1.00;;;;;;2305839;40;3512;-89
2024/02/05 04:58:34;354953.00;1.18;612.37;35393.00;0.12;61.92;;;;;11.80;1.00;;;;;;2341537;55;3568;-87
2024/02/05 05:03:38;79496.00;0.26;138.17;0.00;0.00;0.62;;;;;10.80;1.00;;;;;;1879865;40;3251;-86
2024/02/05 05:11:08;187639.00;0.63;324.64;0.00;0.00;0.62;;;;;10.90;1.00;;;;;;2269449;61;1396;-86
2024/02/05 05:21:02;79954.00;0.27;138.96;0.00;0.00;0.62;;;;;10.60;1.00;;;;;;2265314;61;1416;-87
2024/02/05 05:28:32;234553.00;0.78;405.38;0.00;0.00;0.62;;;;;10.80;1.00;;;;;;2312732;55;3564;-87
2024/02/05 05:33:28;314322.00;1.05;542.54;0.00;0.00;0.62;;;;;10.80;1.00;;;;;;2261117;61;1426;-86
2024/02/05 05:38:30;227836.00;0.76;393.83;0.00;0.00;0.62;;;;;10.70;1.00;;;;;;2296086;55;3655;-87
2024/02/05 05:43:24;327441.00;1.09;565.09;0.00;0.00;0.62;;;;;10.00;1.00;;;;;;2261273;61;1525;-88
2024/02/05 05:45:51;18907.00;0.06;33.38;0.00;0.00;0.62;;;;;9.80;1.00;;;;;;2259739;61;1100;-88
2024/02/05 05:48:18;189721.00;0.63;328.23;0.00;0.00;0.62;;;;;10.10;1.00;;;;;;2259754;61;2004;-90
2024/02/05 05:55:47;67557.00;0.23;117.54;0.00;0.00;0.62;;;;;10.00;1.00;;;;;;2265464;61;1417;-89
2024/02/05 05:58:14;31680.00;0.11;55.49;0.00;0.00;0.62;;;;;9.80;1.00;;;;;;2271903;40;3567;-88
2024/02/05 06:03:11;65037.00;0.22;113.18;0.00;0.00;0.62;;;;;10.00;1.00;;;;;;2261105;61;1417;-87
2024/02/05 06:20:37;276336.00;0.92;477.24;0.00;0.00;0.62;;;;;10.90;1.00;;;;;;2270180;61;1386;-88
2024/02/05 06:30:49;271328.00;0.90;468.63;34854.00;0.12;60.98;;;;;10.90;1.00;;;;;;2284626;40;3499;-85
2024/02/05 06:33:16;190619.00;0.64;329.77;44345.00;0.15;77.41;;;;;10.80;1.00;;;;;;2272367;61;1506;-87
2024/02/05 06:35:45;58443.00;0.19;101.79;0.00;0.00;0.62;;;;;10.80;1.00;;;;;;2272483;61;972;-87
2024/02/05 06:40:41;324273.00;1.08;559.64;89215.00;0.30;154.95;;;;;10.50;1.00;;;;;;2261961;61;1409;-88
2024/02/05 06:45:37;216736.00;0.72;374.73;75162.00;0.25;130.68;;;;;10.60;1.00;;;;;;2274483;61;1427;-87
2024/02/05 06:48:04;295007.00;0.98;509.34;82968.00;0.28;144.16;;;;;10.70;1.00;;;;;;2272450;61;1918;-86
2024/02/05 06:50:31;220956.00;0.74;381.99;87404.00;0.29;151.82;;;;;10.50;1.00;;;;;;2272426;61;1044;-87
2024/02/05 06:53:00;325444.00;1.08;561.66;96120.00;0.32;166.87;;;;;10.60;1.00;;;;;;2272428;61;1282;-87
2024/02/05 06:55:27;284489.00;0.95;491.26;87925.00;0.29;152.72;;;;;10.30;1.00;;;;;;2272573;61;1586;-87
2024/02/05 06:57:54;330432.00;1.10;570.23;93018.00;0.31;161.52;;;;;10.50;1.00;;;;;;2272327;61;952;-86
2024/02/05 07:00:21;256402.00;0.85;442.96;88117.00;0.29;153.06;;;;;10.60;1.00;;;;;;2272313;61;1110;-86
2024/02/05 07:02:49;248698.00;0.83;429.71;80747.00;0.27;140.33;;;;;10.20;1.00;;;;;;2276825;40;3587;-87
2024/02/05 07:05:18;443067.00;1.48;763.86;102693.00;0.34;178.22;;;;;10.40;1.00;;;;;;2272466;61;1161;-87
2024/02/05 07:07:45;332619.00;1.11;573.99;83185.00;0.28;144.54;;;;;10.50;1.00;;;;;;2272443;61;2002;-87
2024/02/05 07:10:13;202394.00;0.67;350.04;89043.00;0.30;154.66;;;;;10.40;1.00;;;;;;2272334;61;916;-87
2024/02/05 07:12:40;197549.00;0.66;341.70;80903.00;0.27;140.60;;;;;10.20;1.00;;;;;;2272267;61;2154;-87
2024/02/05 07:15:08;233922.00;0.78;404.30;88339.00;0.29;153.44;;;;;10.40;1.00;;;;;;2272265;61;1063;-87
2024/02/05 07:17:36;254318.00;0.85;439.38;80379.00;0.27;139.69;;;;;10.50;1.00;;;;;;2272205;61;1036;-88
2024/02/05 07:20:03;218666.00;0.73;378.05;90835.00;0.30;157.75;;;;;10.40;1.00;;;;;;2291961;40;3740;-87
2024/02/05 07:22:30;311518.00;1.04;537.72;89846.00;0.30;156.04;;;;;10.50;1.00;;;;;;2272368;61;1449;-89
2024/02/05 07:24:58;394059.00;1.31;679.59;126075.00;0.42;218.56;;;;;10.10;1.00;;;;;;2272204;61;1635;-89
2024/02/05 07:27:27;430747.00;1.44;742.67;85184.00;0.28;147.99;;;;;10.00;1.00;;;;;;2272223;61;2064;-87
2024/02/05 07:29:54;343225.00;1.14;592.22;86807.00;0.29;150.79;;;;;10.20;1.00;;;;;;2272243;61;1111;-88
2024/02/05 07:32:22;428167.00;1.43;738.23;84499.00;0.28;146.81;;;;;10.30;1.00;;;;;;2272308;61;1383;-87
2024/02/05 07:34:49;352521.00;1.18;608.19;66958.00;0.22;116.50;;;;;10.40;1.00;;;;;;2272308;61;1653;-86
2024/02/05 07:37:16;345162.00;1.15;595.55;88068.00;0.29;152.97;;;;;10.30;1.00;;;;;;2272337;61;1582;-87
2024/02/05 07:42:13;360359.00;1.20;621.67;91687.00;0.31;159.22;;;;;10.30;1.00;;;;;;2270149;61;1384;-88
2024/02/05 07:44:41;364306.00;1.21;628.45;88857.00;0.30;154.33;;;;;10.30;1.00;;;;;;2268159;61;1686;-87
2024/02/05 07:47:08;386014.00;1.29;665.76;87763.00;0.29;152.44;;;;;10.40;1.00;;;;;;2268230;61;1131;-87
2024/02/05 07:49:35;415130.00;1.38;715.82;78863.00;0.26;137.07;;;;;10.40;1.00;;;;;;2268017;61;2002;-86
2024/02/05 07:54:37;495449.00;1.65;853.99;92941.00;0.31;161.39;;;;;10.40;1.00;;;;;;2274052;61;1234;-88
2024/02/05 07:57:06;434956.00;1.45;749.91;92815.00;0.31;161.17;;;;;10.20;1.00;;;;;;2272154;61;1028;-87
2024/02/05 07:59:33;740257.00;2.47;1277.12;98273.00;0.33;170.59;;;;;10.10;1.00;;;;;;2272279;61;994;-86
2024/02/05 08:04:32;665805.00;2.22;1147.99;83744.00;0.28;145.50;;;;;10.30;1.00;;;;;;2265836;61;1397;-87
2024/02/05 08:07:00;601767.00;2.01;1037.27;89009.00;0.30;154.60;;;;;10.30;1.00;;;;;;2264148;61;1120;-87
2024/02/05 08:09:27;512234.00;1.71;882.89;82112.00;0.27;142.69;;;;;10.20;1.00;;;;;;2264127;61;1914;-88
2024/02/05 08:11:53;569396.00;1.90;981.41;97507.00;0.33;169.27;;;;;10.30;1.00;;;;;;2301215;56;3757;-87
2024/02/05 08:14:21;734318.00;2.45;1266.80;94449.00;0.31;163.99;;;;;10.50;1.00;;;;;;2272076;61;1094;-86
2024/02/05 08:19:18;638665.00;2.13;1101.03;0.00;0.00;0.62;;;;;10.00;1.00;;;;;;2261660;61;1251;-90
2024/02/05 08:24:17;574533.00;1.92;990.27;0.00;0.00;0.62;;;;;10.10;1.00;;;;;;2265769;61;1416;-87
2024/02/05 08:26:47;569077.00;1.90;980.85;0.00;0.00;0.62;;;;;10.60;1.00;;;;;;2264109;61;1285;-86
2024/02/05 08:31:58;433351.00;1.44;747.15;0.00;0.00;0.62;;;;;10.60;1.00;;;;;;2184309;40;3590;-86
2024/02/05 08:34:25;94502.00;0.32;164.08;0.00;0.00;0.62;;;;;10.70;1.00;;;;;;2269794;56;3748;-87
2024/02/05 08:36:52;95538.00;0.32;165.87;0.00;0.00;0.62;;;;;10.70;1.00;;;;;;2271646;61;1688;-88
2024/02/05 08:39:21;77645.00;0.26;134.97;0.00;0.00;0.62;;;;;10.40;1.00;;;;;;2272218;61;1699;-87
2024/02/05 08:41:48;98066.00;0.33;170.23;0.00;0.00;0.62;;;;;10.60;1.00;;;;;;2272090;61;1293;-87
2024/02/05 08:44:15;17244.00;0.06;30.50;0.00;0.00;0.62;;;;;10.80;1.00;;;;;;2272185;61;1111;-86
2024/02/05 08:46:41;107746.00;0.36;186.94;0.00;0.00;0.62;;;;;10.90;1.00;;;;;;2272175;61;1005;-86
2024/02/05 08:49:09;11865.00;0.04;21.18;0.00;0.00;0.62;;;;;11.10;1.00;;;;;;2272007;61;1916;-88
2024/02/05 08:51:36;30353.00;0.10;53.19;0.00;0.00;0.62;;;;;10.90;1.00;;;;;;2272231;61;1017;-87
2024/02/05 08:54:03;219079.00;0.73;378.76;0.00;0.00;0.62;;;;;11.10;1.00;;;;;;2272015;61;1578;-88
2024/02/05 08:56:31;30132.00;0.10;52.81;0.00;0.00;0.62;;;;;10.90;1.00;;;;;;2272078;61;1699;-88
2024/02/05 08:58:58;91078.00;0.30;158.17;0.00;0.00;0.62;;;;;10.90;1.00;;;;;;2272149;61;1017;-86
2024/02/05 09:01:26;39990.00;0.13;69.87;0.00;0.00;0.62;;;;;11.20;1.00;;;;;;2276669;55;3737;-88
2024/02/05 09:03:53;115865.00;0.39;200.95;0.00;0.00;0.62;;;;;11.80;1.00;;;;;;2272072;61;1703;-88
2024/02/05 09:06:20;154617.00;0.52;267.76;0.00;0.00;0.62;;;;;12.00;1.00;;;;;;2272038;61;1433;-89
2024/02/05 09:08:47;73388.00;0.24;127.61;0.00;0.00;0.62;;;;;11.90;1.00;;;;;;2272040;61;2002;-87
2024/02/05 09:13:44;184489.00;0.61;319.22;0.00;0.00;0.62;;;;;11.40;1.00;;;;;;2269623;61;1331;-88
2024/02/05 09:16:11;77455.00;0.26;134.64;0.00;0.00;0.62;;;;;11.50;1.00;;;;;;2268040;61;980;-85
2024/02/05 09:18:38;30216.00;0.10;52.96;0.00;0.00;0.62;;;;;11.60;1.00;;;;;;2267925;61;1515;-87
2024/02/05 09:21:05;50834.00;0.17;88.63;0.00;0.00;0.62;;;;;11.70;1.00;;;;;;2267942;61;947;-88
2024/02/05 09:23:33;54720.00;0.18;95.35;0.00;0.00;0.62;;;;;11.40;1.00;;;;;;2268002;61;1278;-88
2024/02/05 09:26:01;148161.00;0.49;256.64;2590.00;0.01;5.11;;;;;11.20;1.00;;;;;;2268016;61;1485;-88
2024/02/05 09:28:28;64962.00;0.22;113.05;0.00;0.00;0.62;;;;;11.50;1.00;;;;;;2267949;61;2001;-88
2024/02/05 09:30:57;76311.00;0.25;132.66;0.00;0.00;0.62;;;;;11.70;1.00;;;;;;2268094;61;1009;-86
2024/02/05 09:33:23;37237.00;0.12;65.11;0.00;0.00;0.62;;;;;11.70;1.00;;;;;;2268056;61;1272;-88
2024/02/05 09:35:52;66529.00;0.22;115.76;0.00;0.00;0.62;;;;;11.70;1.00;;;;;;2267933;61;1103;-86
2024/02/05 09:38:22;26783.00;0.09;47.01;0.00;0.00;0.62;;;;;11.80;1.00;;;;;;2268055;61;1147;-88
2024/02/05 09:40:50;0.00;0.00;0.62;0.00;0.00;0.62;;;;;12.10;1.00;;;;;;2268179;61;1271;-87
2024/02/05 09:43:20;28771.00;0.10;50.46;0.00;0.00;0.62;;;;;11.90;1.00;;;;;;2267872;61;1364;-89
2024/02/05 09:45:52;49836.00;0.17;86.90;0.00;0.00;0.62;;;;;11.90;1.00;;;;;;2267725;61;2130;-86
2024/02/05 09:48:22;76234.00;0.25;132.53;0.00;0.00;0.62;;;;;12.00;1.00;;;;;;2268024;61;1919;-87
2024/02/05 09:50:49;22245.00;0.07;39.16;0.00;0.00;0.62;;;;;12.10;1.00;;;;;;2268633;61;1469;-87
2024/02/05 09:53:18;79124.00;0.26;137.52;0.00;0.00;0.62;;;;;12.00;1.00;;;;;;2268556;61;1288;-87
2024/02/05 09:55:47;116534.00;0.39;202.10;0.00;0.00;0.62;;;;;11.70;1.00;;;;;;2268613;61;1734;-86
2024/02/05 09:58:15;33752.00;0.11;59.08;0.00;0.00;0.62;;;;;12.00;1.00;;;;;;2268648;61;1022;-87
2024/02/05 10:00:41;37951.00;0.13;66.34;0.00;0.00;0.62;;;;;12.10;1.00;;;;;;2268576;61;1045;-87
2024/02/05 10:03:10;105781.00;0.35;183.55;0.00;0.00;0.62;;;;;12.00;1.00;;;;;;2268606;61;1297;-87
2024/02/05 10:05:39;17605.00;0.06;31.12;0.00;0.00;0.62;;;;;11.60;1.00;;;;;;2268715;61;1555;-88
2024/02/05 10:08:07;0.00;0.00;0.62;0.00;0.00;0.62;;;;;11.60;1.00;;;;;;2268717;61;2020;-87
2024/02/05 10:10:36;49680.00;0.17;86.63;0.00;0.00;0.62;;;;;11.70;1.00;;;;;;2268582;61;1078;-88
2024/02/05 10:13:05;54310.00;0.18;94.64;0.00;0.00;0.62;;;;;11.80;1.00;;;;;;2268549;61;1662;-88
2024/02/05 10:15:32;70273.00;0.23;122.23;0.00;0.00;0.62;;;;;11.50;1.00;;;;;;2276641;55;3759;-85
2024/02/05 10:17:59;12972.00;0.04;23.10;0.00;0.00;0.62;;;;;11.50;1.00;;;;;;2273319;61;1554;-88
2024/02/05 10:20:32;98050.00;0.33;170.21;0.00;0.00;0.62;;;;;11.60;1.00;;;;;;2272632;61;2277;-88
2024/02/05 10:25:30;126221.00;0.42;218.81;0.00;0.00;0.62;;;;;11.90;1.00;;;;;;2262468;61;1426;-88
2024/02/05 10:28:01;15283.00;0.05;27.10;0.00;0.00;0.62;;;;;11.80;1.00;;;;;;2260408;61;1100;-87
2024/02/05 10:30:29;40461.00;0.13;70.69;0.00;0.00;0.62;;;;;12.10;1.00;;;;;;2260313;61;2144;-84
2024/02/05 10:32:59;63792.00;0.21;111.03;0.00;0.00;0.62;;;;;12.10;1.00;;;;;;2260482;61;1419;-86
2024/02/05 10:35:27;52930.00;0.18;92.25;0.00;0.00;0.62;;;;;12.00;1.00;;;;;;2260402;61;1010;-87
2024/02/05 10:37:55;96176.00;0.32;166.97;0.00;0.00;0.62;;;;;12.20;1.00;;;;;;2283305;40;3615;-87
2024/02/05 10:40:22;104139.00;0.35;180.72;8199.00;0.03;14.83;;;;;12.20;1.00;;;;;;2272500;61;1029;-87
2024/02/05 10:42:50;95722.00;0.32;166.19;0.00;0.00;0.62;;;;;12.20;1.00;;;;;;2272544;61;1365;-87
2024/02/05 10:45:17;100838.00;0.34;175.02;0.00;0.00;0.62;;;;;12.40;1.00;;;;;;2272349;61;1557;-86
2024/02/05 10:47:46;171022.00;0.57;296.03;0.00;0.00;0.62;;;;;12.40;1.00;;;;;;2272581;61;1021;-88
2024/02/05 10:50:13;244197.00;0.81;421.97;0.00;0.00;0.62;;;;;12.30;1.00;;;;;;2272357;61;1994;-87
2024/02/05 10:52:40;126752.00;0.42;219.73;0.00;0.00;0.62;;;;;12.00;1.00;;;;;;2272455;61;1463;-86
2024/02/05 10:55:08;133829.00;0.45;231.93;0.00;0.00;0.62;;;;;12.00;1.00;;;;;;2272488;61;1764;-87
2024/02/05 10:57:39;126290.00;0.42;218.93;0.00;0.00;0.62;;;;;12.20;1.00;;;;;;2272433;61;1629;-86
2024/02/05 11:00:09;171870.00;0.57;297.49;0.00;0.00;0.62;;;;;12.40;1.00;;;;;;2272226;61;1103;-87
2024/02/05 11:02:42;50809.00;0.17;88.59;0.00;0.00;0.62;;;;;12.30;1.00;;;;;;2272459;61;1254;-88
2024/02/05 11:05:12;48059.00;0.16;83.83;0.00;0.00;0.62;;;;;12.10;1.00;;;;;;2272307;61;973;-87
2024/02/05 11:07:49;89889.00;0.30;156.12;0.00;0.00;0.62;;;;;12.30;1.00;;;;;;2272500;61;1107;-88
2024/02/05 11:10:20;35289.00;0.12;61.74;0.00;0.00;0.62;;;;;12.60;1.00;;;;;;2272320;61;1919;-86
2024/02/05 11:12:51;5761.00;0.02;10.60;0.00;0.00;0.62;;;;;12.60;1.00;;;;;;2272434;61;1299;-89
2024/02/05 11:15:24;124287.00;0.41;215.48;0.00;0.00;0.62;;;;;12.60;1.00;;;;;;2272261;61;1080;-87
2024/02/05 11:17:57;65625.00;0.22;114.20;0.00;0.00;0.62;;;;;12.40;1.00;;;;;;2272199;61;1706;-85
2024/02/05 11:20:26;142235.00;0.47;246.42;0.00;0.00;0.62;;;;;12.40;1.00;;;;;;2272286;61;1612;-85
2024/02/05 11:22:57;306921.00;1.02;529.82;0.00;0.00;0.62;;;;;12.70;1.00;;;;;;2272224;61;1427;-86
2024/02/05 11:25:24;73283.00;0.24;127.43;0.00;0.00;0.62;;;;;12.70;1.00;;;;;;2272275;61;1063;-87
2024/02/05 11:27:51;25843.00;0.09;45.39;0.00;0.00;0.62;;;;;12.90;1.00;;;;;;2272385;61;918;-86
2024/02/05 11:30:20;155447.00;0.52;269.19;0.00;0.00;0.62;;;;;12.80;1.00;;;;;;2279238;41;3595;-87
2024/02/05 11:32:47;112539.00;0.38;195.21;0.00;0.00;0.62;;;;;12.90;1.00;;;;;;2272231;61;1422;-88
2024/02/05 11:35:14;218846.00;0.73;378.36;0.00;0.00;0.62;;;;;13.20;1.00;;;;;;2272362;61;1173;-88
2024/02/05 11:37:43;112875.00;0.38;195.79;0.00;0.00;0.62;;;;;13.40;1.00;;;;;;2272301;61;1735;-87
2024/02/05 11:40:19;120560.00;0.40;209.05;0.00;0.00;0.62;;;;;13.40;1.00;;;;;;2272246;61;1719;-87
2024/02/05 11:42:46;162865.00;0.54;281.98;0.00;0.00;0.62;;;;;13.40;1.00;;;;;;2272332;61;1662;-88
2024/02/05 11:45:13;98033.00;0.33;170.18;0.00;0.00;0.62;;;;;13.50;1.00;;;;;;2272241;61;930;-87
2024/02/05 11:47:41;142197.00;0.47;246.36;0.00;0.00;0.62;;;;;13.50;1.00;;;;;;2272303;61;938;-87
2024/02/05 11:50:09;125291.00;0.42;217.21;0.00;0.00;0.62;;;;;13.60;1.00;;;;;;2272097;61;2004;-89
2024/02/05 11:52:39;98885.00;0.33;171.65;0.00;0.00;0.62;;;;;13.60;1.00;;;;;;2272264;61;1353;-89
2024/02/05 11:55:07;52273.00;0.17;91.12;0.00;0.00;0.62;;;;;13.80;1.00;;;;;;2272203;61;1728;-86
2024/02/05 11:57:34;77371.00;0.26;134.50;0.00;0.00;0.62;;;;;13.40;1.00;;;;;;2272333;61;1040;-88
2024/02/05 12:00:01;28283.00;0.09;49.61;0.00;0.00;0.62;;;;;13.50;1.00;;;;;;2272215;61;1040;-87
2024/02/05 12:02:29;68307.00;0.23;118.83;0.00;0.00;0.62;;;;;13.70;1.00;;;;;;2272184;61;1364;-88
2024/02/05 12:04:58;90333.00;0.30;156.88;0.00;0.00;0.62;;;;;13.90;1.00;;;;;;2272201;61;1088;-89
2024/02/05 12:07:27;87371.00;0.29;151.77;0.00;0.00;0.62;;;;;13.90;1.00;;;;;;2286338;56;3878;-89
2024/02/05 12:09:56;81056.00;0.27;140.86;0.00;0.00;0.62;;;;;13.70;1.00;;;;;;2272177;61;1996;-88
2024/02/05 12:12:24;43126.00;0.14;75.30;0.00;0.00;0.62;;;;;13.70;1.00;;;;;;2272202;61;1720;-88
2024/02/05 12:14:51;838.00;0.00;2.07;0.00;0.00;0.62;;;;;13.70;1.00;;;;;;2283394;40;3579;-89
2024/02/05 12:17:19;76929.00;0.26;133.73;0.00;0.00;0.62;;;;;13.80;1.00;;;;;;2272060;61;1704;-88
2024/02/05 12:19:46;143500.00;0.48;248.60;0.00;0.00;0.62;;;;;13.80;1.00;;;;;;2272199;61;948;-91
2024/02/05 12:22:15;148043.00;0.49;256.43;0.00;0.00;0.62;;;;;13.80;1.00;;;;;;2272062;61;1401;-87
2024/02/05 12:24:43;67463.00;0.22;117.38;0.00;0.00;0.62;;;;;13.90;1.00;;;;;;2272229;61;1052;-89
2024/02/05 12:27:10;75562.00;0.25;131.37;0.00;0.00;0.62;;;;;14.20;1.00;;;;;;2272184;61;954;-88
2024/02/05 12:29:37;36145.00;0.12;63.22;0.00;0.00;0.62;;;;;14.40;1.00;;;;;;2272146;61;1914;-89
2024/02/05 12:32:05;338936.00;1.13;584.84;22076.00;0.07;38.86;;;;;14.50;1.00;;;;;;2272109;61;1362;-88
2024/02/05 12:34:32;159853.00;0.53;276.79;0.00;0.00;0.62;;;;;14.60;1.00;;;;;;2272171;61;1092;-89
2024/02/05 12:36:59;39135.00;0.13;68.39;0.00;0.00;0.62;;;;;14.60;1.00;;;;;;2272186;61;946;-88
2024/02/05 12:39:28;189243.00;0.63;327.41;0.00;0.00;0.62;;;;;14.80;1.00;;;;;;2272129;61;966;-88
2024/02/05 12:41:55;213544.00;0.71;369.23;48678.00;0.16;84.90;;;;;14.80;1.00;;;;;;2272136;61;1250;-89
2024/02/05 12:44:22;175430.00;0.58;303.62;0.00;0.00;0.62;;;;;14.70;1.00;;;;;;2272039;61;1055;-89
2024/02/05 12:46:49;132695.00;0.44;229.98;37225.00;0.12;65.09;;;;;14.90;1.00;;;;;;2272031;61;999;-87
2024/02/05 12:49:18;56656.00;0.19;98.70;0.00;0.00;0.62;;;;;15.00;1.00;;;;;;2271997;61;2014;-90
2024/02/05 12:51:45;248353.00;0.83;429.12;50901.00;0.17;88.74;;;;;15.20;1.00;;;;;;2272021;61;1286;-87
2024/02/05 12:54:13;303683.00;1.01;524.25;28376.00;0.09;49.77;;;;;15.10;1.00;;;;;;2272086;61;968;-89
2024/02/05 12:56:43;291765.00;0.97;503.76;91257.00;0.30;158.48;;;;;15.20;1.00;;;;;;2272123;61;1029;-88
2024/02/05 12:59:12;294397.00;0.98;508.29;0.00;0.00;0.62;;;;;15.10;1.00;;;;;;2272124;61;1993;-89
2024/02/05 13:01:41;54237.00;0.18;94.51;0.00;0.00;0.62;;;;;15.00;1.00;;;;;;2272039;61;2384;-89
2024/02/05 13:04:08;106273.00;0.35;184.40;0.00;0.00;0.62;;;;;15.10;1.00;;;;;;2272025;61;1233;-89
2024/02/05 13:06:36;142194.00;0.47;246.35;0.00;0.00;0.62;;;;;15.10;1.00;;;;;;2271985;61;1146;-86
2024/02/05 13:09:08;279004.00;0.93;481.83;0.00;0.00;0.62;;;;;15.20;1.00;;;;;;2272063;61;2009;-88
2024/02/05 13:11:36;22549.00;0.08;39.68;0.00;0.00;0.62;;;;;15.40;1.00;;;;;;2272145;61;1161;-87
2024/02/05 13:14:06;157876.00;0.53;273.38;0.00;0.00;0.62;;;;;15.60;1.00;;;;;;2271936;61;1687;-88
2024/02/05 13:16:33;184689.00;0.62;319.56;0.00;0.00;0.62;;;;;15.90;1.00;;;;;;2272031;61;1114;-88
2024/02/05 13:19:01;107112.00;0.36;185.85;31637.00;0.11;55.42;;;;;15.90;1.00;;;;;;2272106;61;977;-89
2024/02/05 13:21:28;54250.00;0.18;94.54;0.00;0.00;0.62;;;;;15.70;1.00;;;;;;2272082;61;1044;-88
2024/02/05 13:23:54;17699.00;0.06;31.29;0.00;0.00;0.62;;;;;15.60;1.00;;;;;;2271925;61;1273;-89
2024/02/05 13:26:22;74178.00;0.25;128.98;0.00;0.00;0.62;;;;;15.60;1.00;;;;;;2272030;61;1621;-88